sensor_id;sensor_type;location;lat;lon;timestamp;P1;durP1;ratioP1;P2;durP2;ratioP2
27495;SDS011;14929;51.336;9.416;2022-12-10T00:01:48;13.70;;;10.60;;
27495;SDS011;14929;51.336;9.416;2022-12-10T00:04:17;14.55;;;12.45;;
27495;SDS011;14929;51.336;9.416;2022-12-10T00:06:46;12.85;;;11.55;;
27495;SDS011;14929;51.336;9.416;2022-12-10T00:09:16;13.25;;;11.48;;
27495;SDS011;14929;51.336;9.416;2022-12-10T00:11:45;12.07;;;10.40;;
27495;SDS011;14929;51.336;9.416;2022-12-10T00:14:13;12.40;;;10.95;;
27495;SDS011;14929;51.336;9.416;2022-12-10T00:16:41;12.48;;;10.40;;
27495;SDS011;14929;51.336;9.416;2022-12-10T00:19:08;13.40;;;11.00;;
27495;SDS011;14929;51.336;9.416;2022-12-10T00:21:36;11.70;;;9.90;;
27495;SDS011;14929;51.336;9.416;2022-12-10T00:24:04;13.85;;;10.52;;
27495;SDS011;14929;51.336;9.416;2022-12-10T00:26:34;12.50;;;10.63;;
27495;SDS011;14929;51.336;9.416;2022-12-10T00:29:04;13.57;;;10.60;;
27495;SDS011;14929;51.336;9.416;2022-12-10T00:31:36;14.98;;;11.73;;
27495;SDS011;14929;51.336;9.416;2022-12-10T00:34:05;13.02;;;10.85;;
27495;SDS011;14929;51.336;9.416;2022-12-10T00:36:36;10.63;;;9.10;;
27495;SDS011;14929;51.336;9.416;2022-12-10T00:39:07;11.68;;;10.25;;
27495;SDS011;14929;51.336;9.416;2022-12-10T00:41:36;10.77;;;9.10;;
27495;SDS011;14929;51.336;9.416;2022-12-10T00:44:04;11.13;;;9.38;;
27495;SDS011;14929;51.336;9.416;2022-12-10T00:46:31;13.38;;;10.95;;
27495;SDS011;14929;51.336;9.416;2022-12-10T00:48:59;11.60;;;9.98;;
27495;SDS011;14929;51.336;9.416;2022-12-10T00:51:28;13.75;;;10.70;;
27495;SDS011;14929;51.336;9.416;2022-12-10T00:53:56;15.88;;;11.57;;
27495;SDS011;14929;51.336;9.416;2022-12-10T00:56:25;12.05;;;10.77;;
27495;SDS011;14929;51.336;9.416;2022-12-10T00:58:56;12.15;;;10.30;;
27495;SDS011;14929;51.336;9.416;2022-12-10T01:01:26;13.20;;;10.85;;
27495;SDS011;14929;51.336;9.416;2022-12-10T01:03:57;13.20;;;10.50;;
27495;SDS011;14929;51.336;9.416;2022-12-10T01:06:27;13.93;;;11.27;;
27495;SDS011;14929;51.336;9.416;2022-12-10T01:08:57;13.48;;;11.38;;
27495;SDS011;14929;51.336;9.416;2022-12-10T01:11:28;12.20;;;10.40;;
27495;SDS011;14929;51.336;9.416;2022-12-10T01:13:59;12.57;;;11.15;;
27495;SDS011;14929;51.336;9.416;2022-12-10T01:16:27;12.10;;;9.77;;
27495;SDS011;14929;51.336;9.416;2022-12-10T01:18:55;12.50;;;10.75;;
27495;SDS011;14929;51.336;9.416;2022-12-10T01:21:25;12.15;;;10.02;;
27495;SDS011;14929;51.336;9.416;2022-12-10T01:23:54;13.80;;;11.35;;
27495;SDS011;14929;51.336;9.416;2022-12-10T01:26:24;12.75;;;10.68;;
27495;SDS011;14929;51.336;9.416;2022-12-10T01:28:53;12.38;;;10.52;;
27495;SDS011;14929;51.336;9.416;2022-12-10T01:31:24;10.50;;;9.40;;
27495;SDS011;14929;51.336;9.416;2022-12-10T01:33:52;12.25;;;10.88;;
27495;SDS011;14929;51.336;9.416;2022-12-10T01:36:21;13.48;;;11.30;;
27495;SDS011;14929;51.336;9.416;2022-12-10T01:38:51;16.15;;;12.43;;
27495;SDS011;14929;51.336;9.416;2022-12-10T01:41:20;12.02;;;10.65;;
27495;SDS011;14929;51.336;9.416;2022-12-10T01:43:51;11.90;;;10.65;;
27495;SDS011;14929;51.336;9.416;2022-12-10T01:46:23;14.32;;;11.60;;
27495;SDS011;14929;51.336;9.416;2022-12-10T01:48:52;14.02;;;11.00;;
27495;SDS011;14929;51.336;9.416;2022-12-10T01:51:20;13.38;;;10.18;;
27495;SDS011;14929;51.336;9.416;2022-12-10T01:53:49;11.52;;;10.10;;
27495;SDS011;14929;51.336;9.416;2022-12-10T01:56:18;10.80;;;9.13;;
27495;SDS011;14929;51.336;9.416;2022-12-10T01:58:47;15.35;;;11.27;;
27495;SDS011;14929;51.336;9.416;2022-12-10T02:01:19;13.38;;;10.90;;
27495;SDS011;14929;51.336;9.416;2022-12-10T02:03:56;13.45;;;10.65;;
27495;SDS011;14929;51.336;9.416;2022-12-10T02:06:48;13.35;;;11.68;;
27495;SDS011;14929;51.336;9.416;2022-12-10T02:09:24;12.02;;;10.57;;
27495;SDS011;14929;51.336;9.416;2022-12-10T02:11:57;12.75;;;10.38;;
27495;SDS011;14929;51.336;9.416;2022-12-10T02:14:41;11.88;;;10.35;;
27495;SDS011;14929;51.336;9.416;2022-12-10T02:17:17;11.38;;;10.05;;
27495;SDS011;14929;51.336;9.416;2022-12-10T02:19:52;12.95;;;11.10;;
27495;SDS011;14929;51.336;9.416;2022-12-10T02:22:33;13.18;;;10.85;;
27495;SDS011;14929;51.336;9.416;2022-12-10T02:25:03;14.23;;;11.65;;
27495;SDS011;14929;51.336;9.416;2022-12-10T02:27:34;12.82;;;11.52;;
27495;SDS011;14929;51.336;9.416;2022-12-10T02:30:10;13.05;;;10.88;;
27495;SDS011;14929;51.336;9.416;2022-12-10T02:32:38;12.07;;;10.75;;
27495;SDS011;14929;51.336;9.416;2022-12-10T02:35:09;13.95;;;12.18;;
27495;SDS011;14929;51.336;9.416;2022-12-10T02:37:41;13.13;;;10.90;;
27495;SDS011;14929;51.336;9.416;2022-12-10T02:40:15;14.60;;;12.63;;
27495;SDS011;14929;51.336;9.416;2022-12-10T02:42:47;13.85;;;10.60;;
27495;SDS011;14929;51.336;9.416;2022-12-10T02:45:18;16.00;;;12.77;;
27495;SDS011;14929;51.336;9.416;2022-12-10T02:47:48;14.45;;;11.85;;
27495;SDS011;14929;51.336;9.416;2022-12-10T02:50:17;14.70;;;12.15;;
27495;SDS011;14929;51.336;9.416;2022-12-10T02:52:46;16.10;;;11.98;;
27495;SDS011;14929;51.336;9.416;2022-12-10T02:55:14;14.52;;;11.75;;
27495;SDS011;14929;51.336;9.416;2022-12-10T02:57:43;14.40;;;11.55;;
27495;SDS011;14929;51.336;9.416;2022-12-10T03:00:25;13.95;;;11.52;;
27495;SDS011;14929;51.336;9.416;2022-12-10T03:02:56;15.27;;;12.70;;
27495;SDS011;14929;51.336;9.416;2022-12-10T03:05:35;14.25;;;11.18;;
27495;SDS011;14929;51.336;9.416;2022-12-10T03:08:10;13.98;;;11.38;;
27495;SDS011;14929;51.336;9.416;2022-12-10T03:10:42;16.17;;;13.18;;
27495;SDS011;14929;51.336;9.416;2022-12-10T03:13:15;13.18;;;11.23;;
27495;SDS011;14929;51.336;9.416;2022-12-10T03:15:47;13.70;;;11.20;;
27495;SDS011;14929;51.336;9.416;2022-12-10T03:18:15;13.73;;;12.20;;
27495;SDS011;14929;51.336;9.416;2022-12-10T03:20:45;13.73;;;12.18;;
27495;SDS011;14929;51.336;9.416;2022-12-10T03:23:14;15.30;;;12.10;;
27495;SDS011;14929;51.336;9.416;2022-12-10T03:25:43;14.48;;;11.73;;
27495;SDS011;14929;51.336;9.416;2022-12-10T03:28:12;15.23;;;13.13;;
27495;SDS011;14929;51.336;9.416;2022-12-10T03:30:40;14.55;;;11.27;;
27495;SDS011;14929;51.336;9.416;2022-12-10T03:33:10;16.00;;;12.70;;
27495;SDS011;14929;51.336;9.416;2022-12-10T03:35:38;14.20;;;11.23;;
27495;SDS011;14929;51.336;9.416;2022-12-10T03:38:06;12.95;;;11.18;;
27495;SDS011;14929;51.336;9.416;2022-12-10T03:40:34;14.25;;;11.75;;
27495;SDS011;14929;51.336;9.416;2022-12-10T03:43:02;13.82;;;11.80;;
27495;SDS011;14929;51.336;9.416;2022-12-10T03:45:29;14.68;;;11.45;;
27495;SDS011;14929;51.336;9.416;2022-12-10T03:47:57;16.45;;;13.00;;
27495;SDS011;14929;51.336;9.416;2022-12-10T03:50:26;16.77;;;13.18;;
27495;SDS011;14929;51.336;9.416;2022-12-10T03:52:53;17.55;;;12.77;;
27495;SDS011;14929;51.336;9.416;2022-12-10T03:55:21;14.88;;;12.80;;
27495;SDS011;14929;51.336;9.416;2022-12-10T03:57:48;13.77;;;12.27;;
27495;SDS011;14929;51.336;9.416;2022-12-10T04:00:16;16.00;;;12.90;;
27495;SDS011;14929;51.336;9.416;2022-12-10T04:02:44;15.35;;;12.88;;
27495;SDS011;14929;51.336;9.416;2022-12-10T04:05:11;14.85;;;13.18;;
27495;SDS011;14929;51.336;9.416;2022-12-10T04:07:40;15.93;;;13.32;;
27495;SDS011;14929;51.336;9.416;2022-12-10T04:10:08;16.02;;;12.77;;
27495;SDS011;14929;51.336;9.416;2022-12-10T04:12:36;14.43;;;12.65;;
27495;SDS011;14929;51.336;9.416;2022-12-10T04:15:03;13.82;;;11.48;;
27495;SDS011;14929;51.336;9.416;2022-12-10T04:17:49;16.95;;;13.82;;
27495;SDS011;14929;51.336;9.416;2022-12-10T04:20:17;15.13;;;12.38;;
27495;SDS011;14929;51.336;9.416;2022-12-10T04:23:04;15.68;;;12.82;;
27495;SDS011;14929;51.336;9.416;2022-12-10T04:25:49;16.67;;;13.43;;
27495;SDS011;14929;51.336;9.416;2022-12-10T04:28:34;17.55;;;13.98;;
27495;SDS011;14929;51.336;9.416;2022-12-10T04:31:01;15.52;;;13.75;;
27495;SDS011;14929;51.336;9.416;2022-12-10T04:33:29;14.38;;;12.82;;
27495;SDS011;14929;51.336;9.416;2022-12-10T04:35:56;18.15;;;14.00;;
27495;SDS011;14929;51.336;9.416;2022-12-10T04:38:25;18.85;;;14.55;;
27495;SDS011;14929;51.336;9.416;2022-12-10T04:40:52;18.83;;;14.07;;
27495;SDS011;14929;51.336;9.416;2022-12-10T04:43:26;17.33;;;14.05;;
27495;SDS011;14929;51.336;9.416;2022-12-10T04:45:55;21.20;;;15.40;;
27495;SDS011;14929;51.336;9.416;2022-12-10T04:48:22;17.48;;;14.73;;
27495;SDS011;14929;51.336;9.416;2022-12-10T04:50:50;18.80;;;14.32;;
27495;SDS011;14929;51.336;9.416;2022-12-10T04:53:17;17.23;;;13.02;;
27495;SDS011;14929;51.336;9.416;2022-12-10T04:55:46;14.88;;;12.93;;
27495;SDS011;14929;51.336;9.416;2022-12-10T04:58:14;17.20;;;13.10;;
27495;SDS011;14929;51.336;9.416;2022-12-10T05:00:41;18.55;;;15.35;;
27495;SDS011;14929;51.336;9.416;2022-12-10T05:03:08;21.88;;;15.48;;
27495;SDS011;14929;51.336;9.416;2022-12-10T05:05:36;19.73;;;15.30;;
27495;SDS011;14929;51.336;9.416;2022-12-10T05:08:03;17.88;;;14.35;;
27495;SDS011;14929;51.336;9.416;2022-12-10T05:10:33;21.50;;;16.27;;
27495;SDS011;14929;51.336;9.416;2022-12-10T05:13:02;23.83;;;17.80;;
27495;SDS011;14929;51.336;9.416;2022-12-10T05:15:30;22.52;;;18.13;;
27495;SDS011;14929;51.336;9.416;2022-12-10T05:17:57;21.85;;;16.67;;
27495;SDS011;14929;51.336;9.416;2022-12-10T05:20:24;23.83;;;18.90;;
27495;SDS011;14929;51.336;9.416;2022-12-10T05:22:52;25.48;;;17.80;;
27495;SDS011;14929;51.336;9.416;2022-12-10T05:25:36;22.30;;;17.02;;
27495;SDS011;14929;51.336;9.416;2022-12-10T05:28:19;26.55;;;18.30;;
27495;SDS011;14929;51.336;9.416;2022-12-10T05:30:47;22.20;;;17.13;;
27495;SDS011;14929;51.336;9.416;2022-12-10T05:33:14;23.48;;;17.17;;
27495;SDS011;14929;51.336;9.416;2022-12-10T05:35:42;22.17;;;17.65;;
27495;SDS011;14929;51.336;9.416;2022-12-10T05:38:10;23.17;;;17.55;;
27495;SDS011;14929;51.336;9.416;2022-12-10T05:40:37;24.65;;;18.33;;
27495;SDS011;14929;51.336;9.416;2022-12-10T05:43:04;21.73;;;16.67;;
27495;SDS011;14929;51.336;9.416;2022-12-10T05:45:33;22.17;;;17.92;;
27495;SDS011;14929;51.336;9.416;2022-12-10T05:48:01;24.63;;;17.30;;
27495;SDS011;14929;51.336;9.416;2022-12-10T05:50:30;22.50;;;16.73;;
27495;SDS011;14929;51.336;9.416;2022-12-10T05:52:58;24.42;;;18.30;;
27495;SDS011;14929;51.336;9.416;2022-12-10T05:55:25;23.80;;;17.73;;
27495;SDS011;14929;51.336;9.416;2022-12-10T05:57:54;25.58;;;17.95;;
27495;SDS011;14929;51.336;9.416;2022-12-10T06:00:21;26.63;;;19.98;;
27495;SDS011;14929;51.336;9.416;2022-12-10T06:02:50;24.27;;;17.58;;
27495;SDS011;14929;51.336;9.416;2022-12-10T06:05:18;23.42;;;17.85;;
27495;SDS011;14929;51.336;9.416;2022-12-10T06:07:45;23.08;;;18.92;;
27495;SDS011;14929;51.336;9.416;2022-12-10T06:10:13;24.15;;;18.45;;
27495;SDS011;14929;51.336;9.416;2022-12-10T06:12:41;22.65;;;17.10;;
27495;SDS011;14929;51.336;9.416;2022-12-10T06:15:09;24.05;;;18.27;;
27495;SDS011;14929;51.336;9.416;2022-12-10T06:17:37;24.55;;;18.85;;
27495;SDS011;14929;51.336;9.416;2022-12-10T06:20:06;25.55;;;19.20;;
27495;SDS011;14929;51.336;9.416;2022-12-10T06:22:35;24.77;;;17.05;;
27495;SDS011;14929;51.336;9.416;2022-12-10T06:25:03;23.75;;;17.27;;
27495;SDS011;14929;51.336;9.416;2022-12-10T06:27:31;26.00;;;17.95;;
27495;SDS011;14929;51.336;9.416;2022-12-10T06:29:59;24.88;;;16.85;;
27495;SDS011;14929;51.336;9.416;2022-12-10T06:32:26;24.27;;;18.58;;
27495;SDS011;14929;51.336;9.416;2022-12-10T06:34:54;25.88;;;18.48;;
27495;SDS011;14929;51.336;9.416;2022-12-10T06:37:23;25.65;;;18.10;;
27495;SDS011;14929;51.336;9.416;2022-12-10T06:39:50;24.27;;;17.25;;
27495;SDS011;14929;51.336;9.416;2022-12-10T06:42:18;25.35;;;17.17;;
27495;SDS011;14929;51.336;9.416;2022-12-10T06:44:45;20.40;;;15.27;;
27495;SDS011;14929;51.336;9.416;2022-12-10T06:47:13;27.80;;;18.17;;
27495;SDS011;14929;51.336;9.416;2022-12-10T06:49:41;21.48;;;15.40;;
27495;SDS011;14929;51.336;9.416;2022-12-10T06:52:09;24.90;;;16.90;;
27495;SDS011;14929;51.336;9.416;2022-12-10T06:54:38;23.00;;;16.98;;
27495;SDS011;14929;51.336;9.416;2022-12-10T06:57:05;22.08;;;16.58;;
27495;SDS011;14929;51.336;9.416;2022-12-10T06:59:32;21.98;;;15.98;;
27495;SDS011;14929;51.336;9.416;2022-12-10T07:02:00;23.92;;;15.82;;
27495;SDS011;14929;51.336;9.416;2022-12-10T07:04:28;24.50;;;16.67;;
27495;SDS011;14929;51.336;9.416;2022-12-10T07:06:55;22.65;;;17.58;;
27495;SDS011;14929;51.336;9.416;2022-12-10T07:09:23;23.88;;;16.63;;
27495;SDS011;14929;51.336;9.416;2022-12-10T07:11:51;24.92;;;17.25;;
27495;SDS011;14929;51.336;9.416;2022-12-10T07:14:19;19.25;;;15.05;;
27495;SDS011;14929;51.336;9.416;2022-12-10T07:16:46;24.65;;;17.05;;
27495;SDS011;14929;51.336;9.416;2022-12-10T07:19:14;21.40;;;15.15;;
27495;SDS011;14929;51.336;9.416;2022-12-10T07:21:42;23.88;;;16.98;;
27495;SDS011;14929;51.336;9.416;2022-12-10T07:24:11;24.65;;;14.90;;
27495;SDS011;14929;51.336;9.416;2022-12-10T07:26:42;25.08;;;17.20;;
27495;SDS011;14929;51.336;9.416;2022-12-10T07:29:14;21.90;;;16.48;;
27495;SDS011;14929;51.336;9.416;2022-12-10T07:31:43;21.50;;;15.75;;
27495;SDS011;14929;51.336;9.416;2022-12-10T07:34:12;23.58;;;16.98;;
27495;SDS011;14929;51.336;9.416;2022-12-10T07:36:40;21.25;;;15.82;;
27495;SDS011;14929;51.336;9.416;2022-12-10T07:39:08;22.25;;;17.40;;
27495;SDS011;14929;51.336;9.416;2022-12-10T07:41:42;21.88;;;15.93;;
27495;SDS011;14929;51.336;9.416;2022-12-10T07:44:12;25.02;;;17.13;;
27495;SDS011;14929;51.336;9.416;2022-12-10T07:46:40;21.35;;;16.17;;
27495;SDS011;14929;51.336;9.416;2022-12-10T07:49:07;19.98;;;14.43;;
27495;SDS011;14929;51.336;9.416;2022-12-10T07:51:35;20.80;;;15.10;;
27495;SDS011;14929;51.336;9.416;2022-12-10T07:54:02;19.63;;;16.02;;
27495;SDS011;14929;51.336;9.416;2022-12-10T07:56:30;20.45;;;15.35;;
27495;SDS011;14929;51.336;9.416;2022-12-10T07:58:57;22.55;;;15.45;;
27495;SDS011;14929;51.336;9.416;2022-12-10T08:01:26;24.88;;;17.33;;
27495;SDS011;14929;51.336;9.416;2022-12-10T08:03:54;21.17;;;15.27;;
27495;SDS011;14929;51.336;9.416;2022-12-10T08:06:23;23.98;;;16.67;;
27495;SDS011;14929;51.336;9.416;2022-12-10T08:08:51;20.08;;;15.13;;
27495;SDS011;14929;51.336;9.416;2022-12-10T08:11:20;21.73;;;17.05;;
27495;SDS011;14929;51.336;9.416;2022-12-10T08:13:48;21.20;;;16.00;;
27495;SDS011;14929;51.336;9.416;2022-12-10T08:16:17;22.15;;;16.00;;
27495;SDS011;14929;51.336;9.416;2022-12-10T08:18:49;21.40;;;15.52;;
27495;SDS011;14929;51.336;9.416;2022-12-10T08:21:17;20.85;;;15.30;;
27495;SDS011;14929;51.336;9.416;2022-12-10T08:23:46;21.73;;;15.38;;
27495;SDS011;14929;51.336;9.416;2022-12-10T08:26:15;22.45;;;16.40;;
27495;SDS011;14929;51.336;9.416;2022-12-10T08:28:44;25.67;;;17.60;;
27495;SDS011;14929;51.336;9.416;2022-12-10T08:31:12;20.58;;;14.88;;
27495;SDS011;14929;51.336;9.416;2022-12-10T08:33:41;26.25;;;16.52;;
27495;SDS011;14929;51.336;9.416;2022-12-10T08:36:11;20.77;;;14.45;;
27495;SDS011;14929;51.336;9.416;2022-12-10T08:38:41;25.23;;;17.67;;
27495;SDS011;14929;51.336;9.416;2022-12-10T08:41:09;21.00;;;14.63;;
27495;SDS011;14929;51.336;9.416;2022-12-10T08:43:39;21.33;;;14.38;;
27495;SDS011;14929;51.336;9.416;2022-12-10T08:46:07;19.70;;;14.82;;
27495;SDS011;14929;51.336;9.416;2022-12-10T08:48:35;21.15;;;15.35;;
27495;SDS011;14929;51.336;9.416;2022-12-10T08:51:04;21.25;;;13.85;;
27495;SDS011;14929;51.336;9.416;2022-12-10T08:53:34;22.48;;;15.65;;
27495;SDS011;14929;51.336;9.416;2022-12-10T08:56:02;20.70;;;15.73;;
27495;SDS011;14929;51.336;9.416;2022-12-10T08:58:30;20.85;;;15.20;;
27495;SDS011;14929;51.336;9.416;2022-12-10T09:00:58;23.77;;;15.35;;
27495;SDS011;14929;51.336;9.416;2022-12-10T09:03:26;20.52;;;14.80;;
27495;SDS011;14929;51.336;9.416;2022-12-10T09:05:54;19.60;;;13.77;;
27495;SDS011;14929;51.336;9.416;2022-12-10T09:08:21;19.90;;;13.80;;
27495;SDS011;14929;51.336;9.416;2022-12-10T09:10:50;20.52;;;12.90;;
27495;SDS011;14929;51.336;9.416;2022-12-10T09:13:17;17.35;;;14.02;;
27495;SDS011;14929;51.336;9.416;2022-12-10T09:15:49;16.05;;;10.98;;
27495;SDS011;14929;51.336;9.416;2022-12-10T09:18:17;16.40;;;11.45;;
27495;SDS011;14929;51.336;9.416;2022-12-10T09:20:45;17.05;;;11.70;;
27495;SDS011;14929;51.336;9.416;2022-12-10T09:23:13;19.27;;;13.07;;
27495;SDS011;14929;51.336;9.416;2022-12-10T09:25:40;18.40;;;12.32;;
27495;SDS011;14929;51.336;9.416;2022-12-10T09:28:09;14.25;;;10.55;;
27495;SDS011;14929;51.336;9.416;2022-12-10T09:30:37;15.18;;;10.65;;
27495;SDS011;14929;51.336;9.416;2022-12-10T09:33:04;18.48;;;11.73;;
27495;SDS011;14929;51.336;9.416;2022-12-10T09:35:32;15.68;;;11.50;;
27495;SDS011;14929;51.336;9.416;2022-12-10T09:37:59;14.38;;;9.82;;
27495;SDS011;14929;51.336;9.416;2022-12-10T09:40:29;19.63;;;11.73;;
27495;SDS011;14929;51.336;9.416;2022-12-10T09:43:11;18.42;;;12.30;;
27495;SDS011;14929;51.336;9.416;2022-12-10T09:45:45;19.55;;;11.40;;
27495;SDS011;14929;51.336;9.416;2022-12-10T09:48:25;15.82;;;11.55;;
27495;SDS011;14929;51.336;9.416;2022-12-10T09:51:01;16.58;;;11.60;;
27495;SDS011;14929;51.336;9.416;2022-12-10T09:53:34;14.98;;;11.48;;
27495;SDS011;14929;51.336;9.416;2022-12-10T09:56:03;16.88;;;12.43;;
27495;SDS011;14929;51.336;9.416;2022-12-10T09:58:33;13.15;;;10.90;;
27495;SDS011;14929;51.336;9.416;2022-12-10T10:01:03;16.80;;;12.82;;
27495;SDS011;14929;51.336;9.416;2022-12-10T10:03:34;13.98;;;10.23;;
27495;SDS011;14929;51.336;9.416;2022-12-10T10:06:05;15.43;;;10.98;;
27495;SDS011;14929;51.336;9.416;2022-12-10T10:08:36;16.45;;;12.20;;
27495;SDS011;14929;51.336;9.416;2022-12-10T10:11:08;15.88;;;11.07;;
27495;SDS011;14929;51.336;9.416;2022-12-10T10:13:40;15.02;;;12.30;;
27495;SDS011;14929;51.336;9.416;2022-12-10T10:16:16;17.92;;;13.98;;
27495;SDS011;14929;51.336;9.416;2022-12-10T10:18:50;17.10;;;13.13;;
27495;SDS011;14929;51.336;9.416;2022-12-10T10:21:23;16.60;;;12.68;;
27495;SDS011;14929;51.336;9.416;2022-12-10T10:23:52;16.27;;;11.93;;
27495;SDS011;14929;51.336;9.416;2022-12-10T10:26:20;16.30;;;11.75;;
27495;SDS011;14929;51.336;9.416;2022-12-10T10:28:50;16.83;;;14.00;;
27495;SDS011;14929;51.336;9.416;2022-12-10T10:31:23;21.13;;;14.32;;
27495;SDS011;14929;51.336;9.416;2022-12-10T10:33:54;18.80;;;13.63;;
27495;SDS011;14929;51.336;9.416;2022-12-10T10:36:24;16.50;;;13.93;;
27495;SDS011;14929;51.336;9.416;2022-12-10T10:38:54;20.13;;;14.27;;
27495;SDS011;14929;51.336;9.416;2022-12-10T10:41:23;19.08;;;13.80;;
27495;SDS011;14929;51.336;9.416;2022-12-10T10:43:58;19.90;;;14.85;;
27495;SDS011;14929;51.336;9.416;2022-12-10T10:46:29;20.25;;;14.02;;
27495;SDS011;14929;51.336;9.416;2022-12-10T10:49:12;15.60;;;13.13;;
27495;SDS011;14929;51.336;9.416;2022-12-10T10:51:45;24.40;;;17.85;;
27495;SDS011;14929;51.336;9.416;2022-12-10T10:54:14;24.48;;;16.30;;
27495;SDS011;14929;51.336;9.416;2022-12-10T10:57:01;27.52;;;18.73;;
27495;SDS011;14929;51.336;9.416;2022-12-10T10:59:33;20.33;;;14.93;;
27495;SDS011;14929;51.336;9.416;2022-12-10T11:02:03;20.10;;;14.90;;
27495;SDS011;14929;51.336;9.416;2022-12-10T11:04:44;21.67;;;13.55;;
27495;SDS011;14929;51.336;9.416;2022-12-10T11:07:17;20.65;;;14.65;;
27495;SDS011;14929;51.336;9.416;2022-12-10T11:09:51;14.40;;;10.75;;
27495;SDS011;14929;51.336;9.416;2022-12-10T11:12:21;17.15;;;13.32;;
27495;SDS011;14929;51.336;9.416;2022-12-10T11:14:57;16.88;;;10.70;;
27495;SDS011;14929;51.336;9.416;2022-12-10T11:17:25;15.05;;;11.23;;
27495;SDS011;14929;51.336;9.416;2022-12-10T11:19:54;15.38;;;11.50;;
27495;SDS011;14929;51.336;9.416;2022-12-10T11:22:26;16.50;;;11.48;;
27495;SDS011;14929;51.336;9.416;2022-12-10T11:24:56;15.45;;;11.32;;
27495;SDS011;14929;51.336;9.416;2022-12-10T11:27:29;16.40;;;11.65;;
27495;SDS011;14929;51.336;9.416;2022-12-10T11:30:07;15.68;;;10.05;;
27495;SDS011;14929;51.336;9.416;2022-12-10T11:32:44;14.52;;;9.95;;
27495;SDS011;14929;51.336;9.416;2022-12-10T11:35:25;14.23;;;11.35;;
27495;SDS011;14929;51.336;9.416;2022-12-10T11:38:05;22.52;;;14.23;;
27495;SDS011;14929;51.336;9.416;2022-12-10T11:40:48;13.45;;;10.07;;
27495;SDS011;14929;51.336;9.416;2022-12-10T11:43:22;15.40;;;11.00;;
27495;SDS011;14929;51.336;9.416;2022-12-10T11:46:07;24.90;;;15.52;;
27495;SDS011;14929;51.336;9.416;2022-12-10T11:48:52;17.05;;;11.27;;
27495;SDS011;14929;51.336;9.416;2022-12-10T11:51:33;21.38;;;13.23;;
27495;SDS011;14929;51.336;9.416;2022-12-10T11:54:20;19.67;;;13.38;;
27495;SDS011;14929;51.336;9.416;2022-12-10T11:57:06;24.60;;;14.98;;
27495;SDS011;14929;51.336;9.416;2022-12-10T11:59:41;21.80;;;15.00;;
27495;SDS011;14929;51.336;9.416;2022-12-10T12:05:25;20.92;;;13.90;;
27495;SDS011;14929;51.336;9.416;2022-12-10T12:08:04;20.80;;;11.95;;
27495;SDS011;14929;51.336;9.416;2022-12-10T12:13:41;17.17;;;12.63;;
27495;SDS011;14929;51.336;9.416;2022-12-10T12:16:17;13.88;;;10.43;;
27495;SDS011;14929;51.336;9.416;2022-12-10T12:18:52;15.15;;;11.10;;
27495;SDS011;14929;51.336;9.416;2022-12-10T12:21:21;16.65;;;11.38;;
27495;SDS011;14929;51.336;9.416;2022-12-10T12:23:50;16.60;;;11.43;;
27495;SDS011;14929;51.336;9.416;2022-12-10T12:26:23;17.98;;;12.10;;
27495;SDS011;14929;51.336;9.416;2022-12-10T12:28:55;15.98;;;11.90;;
27495;SDS011;14929;51.336;9.416;2022-12-10T12:31:29;12.55;;;9.73;;
27495;SDS011;14929;51.336;9.416;2022-12-10T12:34:01;11.85;;;8.88;;
27495;SDS011;14929;51.336;9.416;2022-12-10T12:36:32;11.30;;;9.13;;
27495;SDS011;14929;51.336;9.416;2022-12-10T12:39:02;11.98;;;9.57;;
27495;SDS011;14929;51.336;9.416;2022-12-10T12:41:40;10.20;;;8.50;;
27495;SDS011;14929;51.336;9.416;2022-12-10T12:44:12;18.85;;;13.60;;
27495;SDS011;14929;51.336;9.416;2022-12-10T12:46:45;11.20;;;8.45;;
27495;SDS011;14929;51.336;9.416;2022-12-10T12:49:18;31.73;;;16.05;;
27495;SDS011;14929;51.336;9.416;2022-12-10T12:51:51;16.55;;;11.68;;
27495;SDS011;14929;51.336;9.416;2022-12-10T12:54:22;13.40;;;7.43;;
27495;SDS011;14929;51.336;9.416;2022-12-10T12:56:53;10.98;;;8.23;;
27495;SDS011;14929;51.336;9.416;2022-12-10T12:59:32;6.30;;;5.70;;
27495;SDS011;14929;51.336;9.416;2022-12-10T13:02:15;10.82;;;7.07;;
27495;SDS011;14929;51.336;9.416;2022-12-10T13:04:51;13.38;;;10.70;;
27495;SDS011;14929;51.336;9.416;2022-12-10T13:07:32;11.15;;;9.88;;
27495;SDS011;14929;51.336;9.416;2022-12-10T13:10:09;11.82;;;9.13;;
27495;SDS011;14929;51.336;9.416;2022-12-10T13:13:17;14.43;;;9.93;;
27495;SDS011;14929;51.336;9.416;2022-12-10T13:15:51;18.05;;;13.45;;
27495;SDS011;14929;51.336;9.416;2022-12-10T13:18:23;10.60;;;8.23;;
27495;SDS011;14929;51.336;9.416;2022-12-10T13:24:08;11.40;;;8.32;;
27495;SDS011;14929;51.336;9.416;2022-12-10T13:26:40;11.48;;;9.45;;
27495;SDS011;14929;51.336;9.416;2022-12-10T13:29:25;13.60;;;9.45;;
27495;SDS011;14929;51.336;9.416;2022-12-10T13:31:57;10.80;;;8.60;;
27495;SDS011;14929;51.336;9.416;2022-12-10T13:34:30;9.38;;;7.50;;
27495;SDS011;14929;51.336;9.416;2022-12-10T13:37:11;12.70;;;10.40;;
27495;SDS011;14929;51.336;9.416;2022-12-10T13:39:50;11.27;;;9.10;;
27495;SDS011;14929;51.336;9.416;2022-12-10T13:42:30;11.18;;;9.10;;
27495;SDS011;14929;51.336;9.416;2022-12-10T13:45:29;10.23;;;7.75;;
27495;SDS011;14929;51.336;9.416;2022-12-10T13:48:23;9.13;;;7.70;;
27495;SDS011;14929;51.336;9.416;2022-12-10T13:54:17;9.23;;;7.95;;
27495;SDS011;14929;51.336;9.416;2022-12-10T13:57:14;11.52;;;7.40;;
27495;SDS011;14929;51.336;9.416;2022-12-10T13:59:55;10.77;;;7.78;;
27495;SDS011;14929;51.336;9.416;2022-12-10T14:02:35;12.15;;;8.73;;
27495;SDS011;14929;51.336;9.416;2022-12-10T14:05:23;10.43;;;8.02;;
27495;SDS011;14929;51.336;9.416;2022-12-10T14:08:10;10.70;;;7.53;;
27495;SDS011;14929;51.336;9.416;2022-12-10T14:10:43;8.98;;;7.47;;
27495;SDS011;14929;51.336;9.416;2022-12-10T14:13:13;12.27;;;9.55;;
27495;SDS011;14929;51.336;9.416;2022-12-10T14:15:46;14.35;;;10.00;;
27495;SDS011;14929;51.336;9.416;2022-12-10T14:18:18;13.07;;;9.63;;
27495;SDS011;14929;51.336;9.416;2022-12-10T14:20:46;16.40;;;12.75;;
27495;SDS011;14929;51.336;9.416;2022-12-10T14:23:23;15.18;;;11.73;;
27495;SDS011;14929;51.336;9.416;2022-12-10T14:26:02;16.20;;;11.80;;
27495;SDS011;14929;51.336;9.416;2022-12-10T14:28:32;20.70;;;14.45;;
27495;SDS011;14929;51.336;9.416;2022-12-10T14:31:05;13.90;;;11.45;;
27495;SDS011;14929;51.336;9.416;2022-12-10T14:33:36;15.95;;;12.50;;
27495;SDS011;14929;51.336;9.416;2022-12-10T14:36:04;15.30;;;11.50;;
27495;SDS011;14929;51.336;9.416;2022-12-10T14:38:33;16.60;;;13.77;;
27495;SDS011;14929;51.336;9.416;2022-12-10T14:41:02;12.75;;;10.75;;
27495;SDS011;14929;51.336;9.416;2022-12-10T14:43:31;14.07;;;11.68;;
27495;SDS011;14929;51.336;9.416;2022-12-10T14:46:06;15.43;;;12.07;;
27495;SDS011;14929;51.336;9.416;2022-12-10T14:48:41;17.25;;;13.07;;
27495;SDS011;14929;51.336;9.416;2022-12-10T14:51:12;24.60;;;17.67;;
27495;SDS011;14929;51.336;9.416;2022-12-10T14:53:41;16.38;;;13.43;;
27495;SDS011;14929;51.336;9.416;2022-12-10T14:56:11;35.53;;;24.92;;
27495;SDS011;14929;51.336;9.416;2022-12-10T14:58:45;29.67;;;21.33;;
27495;SDS011;14929;51.336;9.416;2022-12-10T15:01:17;25.02;;;18.27;;